Canton, Kentucky
Current Conditions -  °F | °C
As of 1:58 AM on Sunday 26 Oct 2014 (Local Time) from KHOP Reporting Station
Moderate Fog Moderate Fog  
Wind Chill: 58°   Ceiling: Unl
Heat Index: 58°   Visibility: 0.25mi
Dew Point: 58°   Wind: 2mph
Humidity: 100%   Direction: 250°WSW
Pressure: 30.01"   Gusts: NA
Location:  36.8031°N, 87.8159°W
Report Text: KHOP 260658Z AUTO 25002KT 1/4SM R23/0800FT FG CLR 14/14 A3001 RMK AO2 SLP161 T01420142
Loading
Personal Weather Stations






























Interactive Weather Map
Tropical Storm Tracking
New forecast layout! Learn more

10-Day Weather Forecast

Advertisements
Track Severe Weather on mobile